sensor_id;sensor_type;location;lat;lon;timestamp;pressure;altitude;pressure_sealevel;temperature;humidity
64115;BME280;62188;35.640;139.748;2022-11-18T00:00:51;102557.20;;;23.73;22.55
64115;BME280;62188;35.640;139.748;2022-11-18T00:03:16;102558.04;;;23.96;22.19
64115;BME280;62188;35.640;139.748;2022-11-18T00:05:42;102559.85;;;23.72;21.91
64115;BME280;62188;35.640;139.748;2022-11-18T00:08:07;102559.99;;;23.89;22.15
64115;BME280;62188;35.640;139.748;2022-11-18T00:10:32;102558.46;;;24.19;22.14
64115;BME280;62188;35.640;139.748;2022-11-18T00:12:58;102555.99;;;24.49;21.64
64115;BME280;62188;35.640;139.748;2022-11-18T00:15:23;102554.51;;;24.74;21.44
64115;BME280;62188;35.640;139.748;2022-11-18T00:17:48;102549.06;;;24.64;21.12
64115;BME280;62188;35.640;139.748;2022-11-18T00:20:14;102549.87;;;24.90;21.23
64115;BME280;62188;35.640;139.748;2022-11-18T00:22:39;102548.08;;;24.93;20.96
64115;BME280;62188;35.640;139.748;2022-11-18T00:25:05;102545.62;;;24.88;20.83
64115;BME280;62188;35.640;139.748;2022-11-18T00:27:30;102543.46;;;25.13;20.72
64115;BME280;62188;35.640;139.748;2022-11-18T00:29:56;102543.22;;;25.33;21.04
64115;BME280;62188;35.640;139.748;2022-11-18T00:32:20;102542.00;;;25.33;20.76
64115;BME280;62188;35.640;139.748;2022-11-18T00:34:46;102535.75;;;25.49;20.68
64115;BME280;62188;35.640;139.748;2022-11-18T00:37:12;102535.98;;;25.77;20.57
64115;BME280;62188;35.640;139.748;2022-11-18T00:39:37;102534.68;;;25.48;20.46
64115;BME280;62188;35.640;139.748;2022-11-18T00:42:02;102532.34;;;25.51;20.11
64115;BME280;62188;35.640;139.748;2022-11-18T00:44:28;102531.41;;;25.70;20.31
64115;BME280;62188;35.640;139.748;2022-11-18T00:46:54;102530.92;;;26.03;20.52
64115;BME280;62188;35.640;139.748;2022-11-18T00:49:19;102530.90;;;26.09;20.11
64115;BME280;62188;35.640;139.748;2022-11-18T00:51:45;102531.56;;;26.09;20.08
64115;BME280;62188;35.640;139.748;2022-11-18T00:54:09;102530.17;;;26.33;20.22
64115;BME280;62188;35.640;139.748;2022-11-18T00:56:35;102529.96;;;26.53;19.63
64115;BME280;62188;35.640;139.748;2022-11-18T00:59:01;102531.56;;;26.18;19.93
64115;BME280;62188;35.640;139.748;2022-11-18T01:01:26;102530.58;;;26.27;19.94
64115;BME280;62188;35.640;139.748;2022-11-18T01:03:51;102525.68;;;26.27;19.91
64115;BME280;62188;35.640;139.748;2022-11-18T01:06:17;102522.43;;;26.40;19.91
64115;BME280;62188;35.640;139.748;2022-11-18T01:08:42;102517.50;;;26.95;19.82
64115;BME280;62188;35.640;139.748;2022-11-18T01:11:08;102518.89;;;26.67;19.64
64115;BME280;62188;35.640;139.748;2022-11-18T01:13:33;102513.56;;;26.42;19.52
64115;BME280;62188;35.640;139.748;2022-11-18T01:15:58;102513.31;;;26.62;19.79
64115;BME280;62188;35.640;139.748;2022-11-18T01:18:26;102512.13;;;26.71;19.74
64115;BME280;62188;35.640;139.748;2022-11-18T01:20:50;102507.33;;;26.77;19.92
64115;BME280;62188;35.640;139.748;2022-11-18T01:23:16;102508.00;;;26.97;19.48
64115;BME280;62188;35.640;139.748;2022-11-18T01:25:42;102507.33;;;26.89;19.77
64115;BME280;62188;35.640;139.748;2022-11-18T01:28:06;102506.61;;;27.44;19.56
64115;BME280;62188;35.640;139.748;2022-11-18T01:30:33;102501.17;;;27.24;19.19
64115;BME280;62188;35.640;139.748;2022-11-18T01:32:57;102496.39;;;27.11;19.43
64115;BME280;62188;35.640;139.748;2022-11-18T01:35:21;102496.46;;;27.07;19.45
64115;BME280;62188;35.640;139.748;2022-11-18T01:37:47;102494.85;;;27.15;19.43
64115;BME280;62188;35.640;139.748;2022-11-18T01:40:13;102490.62;;;27.03;19.68
64115;BME280;62188;35.640;139.748;2022-11-18T01:42:38;102483.44;;;27.20;19.50
64115;BME280;62188;35.640;139.748;2022-11-18T01:47:34;102477.42;;;27.02;19.85
64115;BME280;62188;35.640;139.748;2022-11-18T01:49:55;102472.54;;;27.30;19.72
64115;BME280;62188;35.640;139.748;2022-11-18T01:52:20;102465.43;;;27.15;19.61
64115;BME280;62188;35.640;139.748;2022-11-18T01:54:49;102457.88;;;26.90;19.86
64115;BME280;62188;35.640;139.748;2022-11-18T01:57:13;102451.83;;;26.70;19.73
64115;BME280;62188;35.640;139.748;2022-11-18T01:59:38;102449.07;;;26.97;19.99
64115;BME280;62188;35.640;139.748;2022-11-18T02:02:05;102445.64;;;27.09;19.89
64115;BME280;62188;35.640;139.748;2022-11-18T02:04:27;102445.86;;;27.16;20.22
64115;BME280;62188;35.640;139.748;2022-11-18T02:06:52;102442.26;;;26.82;19.97
64115;BME280;62188;35.640;139.748;2022-11-18T02:09:17;102437.38;;;27.47;19.92
64115;BME280;62188;35.640;139.748;2022-11-18T02:11:43;102436.44;;;27.24;19.80
64115;BME280;62188;35.640;139.748;2022-11-18T02:14:09;102436.74;;;27.03;20.11
64115;BME280;62188;35.640;139.748;2022-11-18T02:16:44;102433.55;;;27.48;20.36
64115;BME280;62188;35.640;139.748;2022-11-18T02:19:02;102436.01;;;27.72;20.07
64115;BME280;62188;35.640;139.748;2022-11-18T02:21:33;102433.18;;;27.29;19.78
64115;BME280;62188;35.640;139.748;2022-11-18T02:24:00;102429.01;;;27.04;20.17
64115;BME280;62188;35.640;139.748;2022-11-18T02:26:30;102425.96;;;27.38;20.10
64115;BME280;62188;35.640;139.748;2022-11-18T02:31:10;102415.39;;;27.70;19.95
64115;BME280;62188;35.640;139.748;2022-11-18T02:33:37;102412.19;;;27.78;19.67
64115;BME280;62188;35.640;139.748;2022-11-18T02:36:03;102412.28;;;27.89;19.69
64115;BME280;62188;35.640;139.748;2022-11-18T02:38:27;102404.03;;;28.12;19.56
64115;BME280;62188;35.640;139.748;2022-11-18T02:40:51;102397.28;;;28.09;19.49
64115;BME280;62188;35.640;139.748;2022-11-18T02:43:15;102394.65;;;28.16;19.31
64115;BME280;62188;35.640;139.748;2022-11-18T02:45:41;102394.95;;;28.31;19.33
64115;BME280;62188;35.640;139.748;2022-11-18T02:48:05;102389.02;;;28.54;18.89
64115;BME280;62188;35.640;139.748;2022-11-18T02:50:30;102388.55;;;28.56;19.06
64115;BME280;62188;35.640;139.748;2022-11-18T02:52:58;102383.46;;;28.50;18.93
64115;BME280;62188;35.640;139.748;2022-11-18T02:55:20;102385.03;;;28.47;18.85
64115;BME280;62188;35.640;139.748;2022-11-18T02:57:45;102385.81;;;28.74;18.86
64115;BME280;62188;35.640;139.748;2022-11-18T03:00:11;102386.36;;;28.61;18.46
64115;BME280;62188;35.640;139.748;2022-11-18T03:02:42;102381.12;;;28.95;18.38
64115;BME280;62188;35.640;139.748;2022-11-18T03:05:00;102375.11;;;29.01;18.57
64115;BME280;62188;35.640;139.748;2022-11-18T03:07:29;102374.91;;;29.47;18.33
64115;BME280;62188;35.640;139.748;2022-11-18T03:09:52;102372.68;;;29.41;18.18
64115;BME280;62188;35.640;139.748;2022-11-18T03:12:23;102367.86;;;29.42;18.13
64115;BME280;62188;35.640;139.748;2022-11-18T03:14:50;102362.63;;;29.52;18.26
64115;BME280;62188;35.640;139.748;2022-11-18T03:17:10;102359.79;;;29.61;18.15
64115;BME280;62188;35.640;139.748;2022-11-18T03:19:43;102357.95;;;29.67;17.87
64115;BME280;62188;35.640;139.748;2022-11-18T03:22:05;102358.79;;;29.29;18.03
64115;BME280;62188;35.640;139.748;2022-11-18T03:24:27;102356.52;;;28.97;18.09
64115;BME280;62188;35.640;139.748;2022-11-18T03:26:52;102356.75;;;28.48;18.77
64115;BME280;62188;35.640;139.748;2022-11-18T03:29:20;102352.35;;;28.01;18.99
64115;BME280;62188;35.640;139.748;2022-11-18T03:31:41;102349.08;;;27.58;19.33
64115;BME280;62188;35.640;139.748;2022-11-18T03:34:08;102350.20;;;26.73;19.79
64115;BME280;62188;35.640;139.748;2022-11-18T03:36:34;102350.63;;;26.76;20.22
64115;BME280;62188;35.640;139.748;2022-11-18T03:38:58;102353.31;;;25.92;20.38
64115;BME280;62188;35.640;139.748;2022-11-18T03:41:22;102349.62;;;25.43;20.81
64115;BME280;62188;35.640;139.748;2022-11-18T03:43:50;102346.56;;;25.01;21.16
64115;BME280;62188;35.640;139.748;2022-11-18T03:46:15;102343.41;;;24.65;21.52
64115;BME280;62188;35.640;139.748;2022-11-18T03:48:41;102344.95;;;24.53;21.65
64115;BME280;62188;35.640;139.748;2022-11-18T03:51:06;102345.34;;;24.60;21.56
64115;BME280;62188;35.640;139.748;2022-11-18T03:53:29;102347.59;;;24.00;21.63
64115;BME280;62188;35.640;139.748;2022-11-18T03:55:55;102352.46;;;23.88;21.49
64115;BME280;62188;35.640;139.748;2022-11-18T03:58:20;102347.39;;;23.67;22.00
64115;BME280;62188;35.640;139.748;2022-11-18T04:00:46;102344.38;;;23.82;21.98
64115;BME280;62188;35.640;139.748;2022-11-18T04:03:10;102339.72;;;24.36;21.51
64115;BME280;62188;35.640;139.748;2022-11-18T04:05:37;102333.92;;;24.69;20.95
64115;BME280;62188;35.640;139.748;2022-11-18T04:08:01;102326.03;;;24.81;20.82
64115;BME280;62188;35.640;139.748;2022-11-18T04:10:29;102324.48;;;25.14;20.62
64115;BME280;62188;35.640;139.748;2022-11-18T04:12:56;102324.17;;;24.68;20.59
64115;BME280;62188;35.640;139.748;2022-11-18T04:15:17;102317.36;;;25.05;20.55
64115;BME280;62188;35.640;139.748;2022-11-18T04:17:43;102315.97;;;25.24;20.20
64115;BME280;62188;35.640;139.748;2022-11-18T04:20:12;102316.53;;;24.86;20.27
64115;BME280;62188;35.640;139.748;2022-11-18T04:22:33;102317.60;;;25.03;20.28
64115;BME280;62188;35.640;139.748;2022-11-18T04:24:58;102316.96;;;25.14;20.37
64115;BME280;62188;35.640;139.748;2022-11-18T04:27:24;102311.68;;;24.87;19.90
64115;BME280;62188;35.640;139.748;2022-11-18T04:29:50;102312.31;;;24.34;20.49
64115;BME280;62188;35.640;139.748;2022-11-18T04:32:15;102306.51;;;23.64;20.90
64115;BME280;62188;35.640;139.748;2022-11-18T04:34:41;102303.02;;;23.11;21.16
64115;BME280;62188;35.640;139.748;2022-11-18T04:37:07;102303.78;;;22.90;21.98
64115;BME280;62188;35.640;139.748;2022-11-18T04:39:32;102302.13;;;22.91;21.53
64115;BME280;62188;35.640;139.748;2022-11-18T04:41:57;102300.80;;;22.82;21.57
64115;BME280;62188;35.640;139.748;2022-11-18T04:44:23;102298.22;;;22.38;21.85
64115;BME280;62188;35.640;139.748;2022-11-18T04:46:48;102296.19;;;22.24;22.07
64115;BME280;62188;35.640;139.748;2022-11-18T04:49:14;102297.31;;;22.46;22.36
64115;BME280;62188;35.640;139.748;2022-11-18T04:51:39;102293.97;;;22.17;22.47
64115;BME280;62188;35.640;139.748;2022-11-18T04:54:05;102297.24;;;21.91;22.69
64115;BME280;62188;35.640;139.748;2022-11-18T04:56:30;102294.86;;;22.23;22.89
64115;BME280;62188;35.640;139.748;2022-11-18T04:58:55;102291.19;;;21.79;23.24
64115;BME280;62188;35.640;139.748;2022-11-18T05:01:21;102290.18;;;21.33;23.66
64115;BME280;62188;35.640;139.748;2022-11-18T05:03:46;102296.12;;;21.43;23.69
64115;BME280;62188;35.640;139.748;2022-11-18T05:06:12;102294.34;;;21.55;23.95
64115;BME280;62188;35.640;139.748;2022-11-18T05:08:38;102291.33;;;21.32;23.93
64115;BME280;62188;35.640;139.748;2022-11-18T05:11:06;102289.22;;;21.35;24.10
64115;BME280;62188;35.640;139.748;2022-11-18T05:13:28;102290.19;;;21.57;24.21
64115;BME280;62188;35.640;139.748;2022-11-18T05:15:53;102295.68;;;21.83;23.93
64115;BME280;62188;35.640;139.748;2022-11-18T05:18:19;102296.07;;;21.32;23.79
64115;BME280;62188;35.640;139.748;2022-11-18T05:20:44;102288.94;;;21.23;23.98
64115;BME280;62188;35.640;139.748;2022-11-18T05:23:10;102287.86;;;21.18;24.42
64115;BME280;62188;35.640;139.748;2022-11-18T05:25:36;102290.27;;;21.04;24.80
64115;BME280;62188;35.640;139.748;2022-11-18T05:28:00;102290.52;;;21.29;25.24
64115;BME280;62188;35.640;139.748;2022-11-18T05:30:26;102286.62;;;21.00;25.19
64115;BME280;62188;35.640;139.748;2022-11-18T05:32:51;102289.55;;;20.88;25.12
64115;BME280;62188;35.640;139.748;2022-11-18T05:35:17;102287.81;;;20.77;25.29
64115;BME280;62188;35.640;139.748;2022-11-18T05:37:42;102292.40;;;20.27;25.85
64115;BME280;62188;35.640;139.748;2022-11-18T05:40:09;102290.91;;;20.61;26.10
64115;BME280;62188;35.640;139.748;2022-11-18T05:42:33;102288.05;;;20.53;26.42
64115;BME280;62188;35.640;139.748;2022-11-18T05:44:59;102287.21;;;20.58;26.20
64115;BME280;62188;35.640;139.748;2022-11-18T05:47:25;102287.64;;;20.59;26.40
64115;BME280;62188;35.640;139.748;2022-11-18T05:49:50;102289.88;;;20.50;25.79
64115;BME280;62188;35.640;139.748;2022-11-18T05:52:15;102289.03;;;20.64;25.61
64115;BME280;62188;35.640;139.748;2022-11-18T05:54:43;102285.41;;;20.61;25.00
64115;BME280;62188;35.640;139.748;2022-11-18T05:57:07;102285.92;;;20.66;24.96
64115;BME280;62188;35.640;139.748;2022-11-18T05:59:32;102289.14;;;20.69;25.15
64115;BME280;62188;35.640;139.748;2022-11-18T06:02:00;102288.00;;;20.69;25.35
64115;BME280;62188;35.640;139.748;2022-11-18T06:04:26;102290.03;;;20.62;25.67
64115;BME280;62188;35.640;139.748;2022-11-18T06:06:49;102291.97;;;20.70;25.69
64115;BME280;62188;35.640;139.748;2022-11-18T06:09:16;102291.35;;;20.81;25.65
64115;BME280;62188;35.640;139.748;2022-11-18T06:11:42;102288.37;;;20.79;25.80
64115;BME280;62188;35.640;139.748;2022-11-18T06:14:09;102287.68;;;20.72;26.03
64115;BME280;62188;35.640;139.748;2022-11-18T06:16:32;102285.00;;;20.67;26.31
64115;BME280;62188;35.640;139.748;2022-11-18T06:18:57;102280.97;;;20.65;26.50
64115;BME280;62188;35.640;139.748;2022-11-18T06:21:22;102281.81;;;20.39;26.84
64115;BME280;62188;35.640;139.748;2022-11-18T06:23:47;102275.72;;;20.49;27.13
64115;BME280;62188;35.640;139.748;2022-11-18T06:26:14;102275.16;;;20.55;27.03
64115;BME280;62188;35.640;139.748;2022-11-18T06:28:39;102271.45;;;20.72;27.11
64115;BME280;62188;35.640;139.748;2022-11-18T06:31:04;102268.33;;;20.84;27.00
64115;BME280;62188;35.640;139.748;2022-11-18T06:33:29;102270.07;;;20.67;26.93
64115;BME280;62188;35.640;139.748;2022-11-18T06:35:55;102266.19;;;20.64;27.20
64115;BME280;62188;35.640;139.748;2022-11-18T06:38:22;102267.46;;;20.94;27.20
64115;BME280;62188;35.640;139.748;2022-11-18T06:40:45;102264.49;;;20.80;27.48
64115;BME280;62188;35.640;139.748;2022-11-18T06:43:12;102261.36;;;20.94;27.34
64115;BME280;62188;35.640;139.748;2022-11-18T06:45:37;102257.92;;;20.98;27.14
64115;BME280;62188;35.640;139.748;2022-11-18T06:48:02;102252.98;;;21.02;26.97
64115;BME280;62188;35.640;139.748;2022-11-18T06:50:28;102254.65;;;20.91;27.34
64115;BME280;62188;35.640;139.748;2022-11-18T06:52:53;102254.00;;;20.51;27.48
64115;BME280;62188;35.640;139.748;2022-11-18T06:55:18;102254.63;;;20.17;27.77
64115;BME280;62188;35.640;139.748;2022-11-18T06:57:44;102256.94;;;20.64;27.79
64115;BME280;62188;35.640;139.748;2022-11-18T07:00:10;102262.27;;;20.67;27.89
64115;BME280;62188;35.640;139.748;2022-11-18T07:02:37;102261.40;;;20.46;28.46
64115;BME280;62188;35.640;139.748;2022-11-18T07:05:00;102264.18;;;20.26;28.88
64115;BME280;62188;35.640;139.748;2022-11-18T07:07:26;102262.84;;;20.19;29.01
64115;BME280;62188;35.640;139.748;2022-11-18T07:09:51;102265.51;;;20.49;29.06
64115;BME280;62188;35.640;139.748;2022-11-18T07:12:17;102263.51;;;20.26;29.16
64115;BME280;62188;35.640;139.748;2022-11-18T07:14:42;102265.32;;;20.18;29.48
64115;BME280;62188;35.640;139.748;2022-11-18T07:17:08;102269.57;;;20.23;29.45
64115;BME280;62188;35.640;139.748;2022-11-18T07:19:33;102267.79;;;20.14;29.68
64115;BME280;62188;35.640;139.748;2022-11-18T07:21:59;102268.86;;;20.11;29.62
64115;BME280;62188;35.640;139.748;2022-11-18T07:24:24;102266.60;;;20.05;29.83
64115;BME280;62188;35.640;139.748;2022-11-18T07:26:49;102266.12;;;20.19;30.04
64115;BME280;62188;35.640;139.748;2022-11-18T07:29:15;102268.57;;;19.96;30.05
64115;BME280;62188;35.640;139.748;2022-11-18T07:31:40;102269.24;;;20.45;30.11
64115;BME280;62188;35.640;139.748;2022-11-18T07:34:06;102267.52;;;20.25;30.19
64115;BME280;62188;35.640;139.748;2022-11-18T07:36:31;102270.40;;;19.99;30.42
64115;BME280;62188;35.640;139.748;2022-11-18T07:39:00;102269.18;;;20.52;30.38
64115;BME280;62188;35.640;139.748;2022-11-18T07:41:23;102271.82;;;20.35;30.70
64115;BME280;62188;35.640;139.748;2022-11-18T07:43:49;102275.51;;;20.35;30.57
64115;BME280;62188;35.640;139.748;2022-11-18T07:46:16;102276.93;;;20.39;30.85
64115;BME280;62188;35.640;139.748;2022-11-18T07:48:39;102273.29;;;20.16;30.63
64115;BME280;62188;35.640;139.748;2022-11-18T07:51:05;102275.57;;;20.23;30.87
64115;BME280;62188;35.640;139.748;2022-11-18T07:53:31;102273.73;;;20.36;30.87
64115;BME280;62188;35.640;139.748;2022-11-18T07:55:56;102272.12;;;20.07;30.91
64115;BME280;62188;35.640;139.748;2022-11-18T07:58:21;102272.64;;;20.05;30.80
64115;BME280;62188;35.640;139.748;2022-11-18T08:00:47;102277.45;;;20.05;30.93
64115;BME280;62188;35.640;139.748;2022-11-18T08:03:12;102278.19;;;20.05;31.12
64115;BME280;62188;35.640;139.748;2022-11-18T08:05:38;102279.39;;;20.08;31.27
64115;BME280;62188;35.640;139.748;2022-11-18T08:08:04;102282.16;;;20.10;31.28
64115;BME280;62188;35.640;139.748;2022-11-18T08:10:28;102285.48;;;20.09;31.29
64115;BME280;62188;35.640;139.748;2022-11-18T08:12:56;102285.75;;;20.39;31.21
64115;BME280;62188;35.640;139.748;2022-11-18T08:15:20;102288.97;;;20.17;31.53
64115;BME280;62188;35.640;139.748;2022-11-18T08:17:45;102288.75;;;20.53;31.43
64115;BME280;62188;35.640;139.748;2022-11-18T08:20:12;102288.64;;;20.26;31.45
64115;BME280;62188;35.640;139.748;2022-11-18T08:22:36;102290.91;;;20.18;31.56
64115;BME280;62188;35.640;139.748;2022-11-18T08:25:01;102290.63;;;20.19;31.72
64115;BME280;62188;35.640;139.748;2022-11-18T08:27:27;102291.85;;;20.26;31.77
64115;BME280;62188;35.640;139.748;2022-11-18T08:29:53;102295.89;;;20.32;31.98
64115;BME280;62188;35.640;139.748;2022-11-18T08:32:19;102299.05;;;20.50;32.10
64115;BME280;62188;35.640;139.748;2022-11-18T08:34:44;102303.79;;;20.14;32.23
64115;BME280;62188;35.640;139.748;2022-11-18T08:37:10;102307.17;;;20.36;32.42
64115;BME280;62188;35.640;139.748;2022-11-18T08:39:35;102306.95;;;20.14;32.33
64115;BME280;62188;35.640;139.748;2022-11-18T08:42:01;102311.12;;;20.24;32.37
64115;BME280;62188;35.640;139.748;2022-11-18T08:44:26;102308.14;;;20.52;32.26
64115;BME280;62188;35.640;139.748;2022-11-18T08:46:52;102310.17;;;20.36;32.19
64115;BME280;62188;35.640;139.748;2022-11-18T08:49:16;102311.28;;;20.40;32.40
64115;BME280;62188;35.640;139.748;2022-11-18T08:51:42;102312.62;;;20.45;32.39
64115;BME280;62188;35.640;139.748;2022-11-18T08:54:08;102310.03;;;20.84;32.35
64115;BME280;62188;35.640;139.748;2022-11-18T08:56:34;102311.14;;;20.72;32.31
64115;BME280;62188;35.640;139.748;2022-11-18T08:58:59;102308.48;;;20.77;32.28
64115;BME280;62188;35.640;139.748;2022-11-18T09:01:25;102309.42;;;20.74;32.34
64115;BME280;62188;35.640;139.748;2022-11-18T09:03:50;102306.58;;;20.54;32.35
64115;BME280;62188;35.640;139.748;2022-11-18T09:06:17;102312.51;;;20.48;32.40
64115;BME280;62188;35.640;139.748;2022-11-18T09:08:41;102317.79;;;20.53;32.31
64115;BME280;62188;35.640;139.748;2022-11-18T09:11:08;102322.06;;;20.55;32.12
64115;BME280;62188;35.640;139.748;2022-11-18T09:13:32;102319.37;;;20.04;32.27
64115;BME280;62188;35.640;139.748;2022-11-18T09:15:59;102320.57;;;20.02;32.59
64115;BME280;62188;35.640;139.748;2022-11-18T09:18:23;102318.20;;;19.97;32.78
64115;BME280;62188;35.640;139.748;2022-11-18T09:20:54;102319.16;;;20.48;32.90
64115;BME280;62188;35.640;139.748;2022-11-18T09:23:14;102320.19;;;20.25;32.78
64115;BME280;62188;35.640;139.748;2022-11-18T09:25:39;102318.89;;;19.73;33.03
64115;BME280;62188;35.640;139.748;2022-11-18T09:28:05;102318.62;;;20.19;33.07
64115;BME280;62188;35.640;139.748;2022-11-18T09:30:30;102325.58;;;19.86;33.22
64115;BME280;62188;35.640;139.748;2022-11-18T09:32:56;102322.99;;;19.62;33.26
64115;BME280;62188;35.640;139.748;2022-11-18T09:35:21;102323.37;;;19.77;33.27
64115;BME280;62188;35.640;139.748;2022-11-18T09:37:46;102320.62;;;19.97;33.32
64115;BME280;62188;35.640;139.748;2022-11-18T09:40:16;102322.60;;;20.10;33.34
64115;BME280;62188;35.640;139.748;2022-11-18T09:42:49;102322.04;;;20.19;33.35
64115;BME280;62188;35.640;139.748;2022-11-18T09:45:12;102323.87;;;20.04;33.39
64115;BME280;62188;35.640;139.748;2022-11-18T09:47:30;102324.23;;;19.92;33.36
64115;BME280;62188;35.640;139.748;2022-11-18T09:49:56;102324.72;;;19.88;33.39
64115;BME280;62188;35.640;139.748;2022-11-18T09:52:21;102325.44;;;20.09;33.93
64115;BME280;62188;35.640;139.748;2022-11-18T09:54:45;102324.51;;;20.13;34.10
64115;BME280;62188;35.640;139.748;2022-11-18T09:57:14;102323.62;;;20.10;33.73
64115;BME280;62188;35.640;139.748;2022-11-18T09:59:36;102325.95;;;20.00;35.21
64115;BME280;62188;35.640;139.748;2022-11-18T10:04:28;102331.37;;;20.26;34.90
64115;BME280;62188;35.640;139.748;2022-11-18T10:06:51;102329.69;;;20.46;33.60
64115;BME280;62188;35.640;139.748;2022-11-18T10:09:29;102331.47;;;20.39;33.25
64115;BME280;62188;35.640;139.748;2022-11-18T10:11:46;102333.51;;;20.18;33.28
64115;BME280;62188;35.640;139.748;2022-11-18T10:14:21;102336.77;;;19.90;33.32
64115;BME280;62188;35.640;139.748;2022-11-18T10:16:41;102335.68;;;19.94;33.75
64115;BME280;62188;35.640;139.748;2022-11-18T10:19:08;102333.74;;;20.26;34.16
64115;BME280;62188;35.640;139.748;2022-11-18T10:21:33;102331.91;;;20.33;33.51
64115;BME280;62188;35.640;139.748;2022-11-18T10:23:52;102329.76;;;20.55;32.85
64115;BME280;62188;35.640;139.748;2022-11-18T10:26:14;102328.13;;;20.37;32.75
64115;BME280;62188;35.640;139.748;2022-11-18T10:28:39;102325.12;;;20.10;32.61
64115;BME280;62188;35.640;139.748;2022-11-18T10:31:06;102325.63;;;20.28;32.91
64115;BME280;62188;35.640;139.748;2022-11-18T10:33:31;102325.32;;;20.11;32.94
64115;BME280;62188;35.640;139.748;2022-11-18T10:36:09;102326.76;;;20.46;32.82
64115;BME280;62188;35.640;139.748;2022-11-18T10:38:22;102325.75;;;20.24;32.84
64115;BME280;62188;35.640;139.748;2022-11-18T10:40:56;102324.38;;;20.40;32.46
64115;BME280;62188;35.640;139.748;2022-11-18T10:45:39;102317.75;;;20.47;32.59
64115;BME280;62188;35.640;139.748;2022-11-18T10:48:12;102312.70;;;20.45;32.52
64115;BME280;62188;35.640;139.748;2022-11-18T10:50:33;102313.14;;;20.21;32.60
64115;BME280;62188;35.640;139.748;2022-11-18T10:52:56;102308.99;;;20.24;32.82
64115;BME280;62188;35.640;139.748;2022-11-18T10:55:23;102306.18;;;20.51;32.62
64115;BME280;62188;35.640;139.748;2022-11-18T10:57:47;102305.71;;;20.50;32.60
64115;BME280;62188;35.640;139.748;2022-11-18T11:02:40;102307.70;;;20.15;32.74
64115;BME280;62188;35.640;139.748;2022-11-18T11:07:30;102310.55;;;20.45;32.87
64115;BME280;62188;35.640;139.748;2022-11-18T11:09:59;102309.53;;;20.46;32.77
64115;BME280;62188;35.640;139.748;2022-11-18T11:12:19;102307.61;;;20.47;32.84
64115;BME280;62188;35.640;139.748;2022-11-18T11:14:49;102304.61;;;20.44;32.98
64115;BME280;62188;35.640;139.748;2022-11-18T11:17:12;102306.54;;;20.40;32.91
64115;BME280;62188;35.640;139.748;2022-11-18T11:19:46;102305.78;;;20.16;32.89
64115;BME280;62188;35.640;139.748;2022-11-18T11:22:01;102305.73;;;20.40;32.86
64115;BME280;62188;35.640;139.748;2022-11-18T11:24:27;102304.31;;;20.44;32.98
64115;BME280;62188;35.640;139.748;2022-11-18T11:26:58;102303.53;;;20.42;32.89
64115;BME280;62188;35.640;139.748;2022-11-18T11:29:27;102304.43;;;20.09;33.10
64115;BME280;62188;35.640;139.748;2022-11-18T11:31:51;102304.40;;;20.12;33.11
64115;BME280;62188;35.640;139.748;2022-11-18T11:34:14;102306.51;;;20.15;33.01
64115;BME280;62188;35.640;139.748;2022-11-18T11:36:42;102306.66;;;20.42;32.96
64115;BME280;62188;35.640;139.748;2022-11-18T11:39:13;102302.78;;;20.43;32.92
64115;BME280;62188;35.640;139.748;2022-11-18T11:41:27;102302.78;;;20.41;32.90
64115;BME280;62188;35.640;139.748;2022-11-18T11:44:01;102303.98;;;20.17;32.88
64115;BME280;62188;35.640;139.748;2022-11-18T11:46:27;102305.89;;;20.43;32.98
64115;BME280;62188;35.640;139.748;2022-11-18T11:48:51;102305.60;;;20.19;32.87
64115;BME280;62188;35.640;139.748;2022-11-18T11:51:13;102306.00;;;20.44;32.70
64115;BME280;62188;35.640;139.748;2022-11-18T11:56:07;102303.26;;;20.51;32.75
64115;BME280;62188;35.640;139.748;2022-11-18T11:58:33;102302.50;;;20.51;32.78
64115;BME280;62188;35.640;139.748;2022-11-18T12:00:54;102304.94;;;20.46;32.89
64115;BME280;62188;35.640;139.748;2022-11-18T12:05:39;102307.38;;;20.44;32.95
64115;BME280;62188;35.640;139.748;2022-11-18T12:08:10;102305.75;;;20.49;32.80
64115;BME280;62188;35.640;139.748;2022-11-18T12:10:39;102305.35;;;20.51;32.83
64115;BME280;62188;35.640;139.748;2022-11-18T12:13:04;102307.33;;;20.11;32.74
64115;BME280;62188;35.640;139.748;2022-11-18T12:15:34;102307.75;;;20.64;32.76
64115;BME280;62188;35.640;139.748;2022-11-18T12:17:54;102309.14;;;20.65;32.75
64115;BME280;62188;35.640;139.748;2022-11-18T12:29:56;102311.58;;;20.56;32.64
64115;BME280;62188;35.640;139.748;2022-11-18T12:32:30;102310.31;;;20.35;32.59
64115;BME280;62188;35.640;139.748;2022-11-18T12:34:45;102309.28;;;20.62;32.36
64115;BME280;62188;35.640;139.748;2022-11-18T12:42:03;102301.15;;;20.73;32.44
64115;BME280;62188;35.640;139.748;2022-11-18T12:44:29;102300.86;;;20.46;32.91
64115;BME280;62188;35.640;139.748;2022-11-18T12:46:59;102302.35;;;20.54;33.34
64115;BME280;62188;35.640;139.748;2022-11-18T12:51:44;102304.83;;;20.24;33.52
64115;BME280;62188;35.640;139.748;2022-11-18T12:54:25;102303.36;;;20.52;33.50
64115;BME280;62188;35.640;139.748;2022-11-18T12:56:37;102303.21;;;20.59;33.43